CheckWX is a tool to help pilots better visualize weather data.  It is not intended as a substitute for an official pre-flight weather briefing.

12:20:59 UTC

KRCZ METAR
Richmond County Airport
Rockingham, North Carolina, USA
Current

26 mins ago

KRCZ 201155Z AUTO 00000KT 10SM CLR 24/22 A3013 RMK AO2 70094 T02400217 10240 20230
Observed
Aug-20 @ 11:55 UTC
Visibility
10 SM
Flight Rules
VFR
Cloud Levels
  • Clear skies
Temperature
24°C / 75°F
Dewpoint
22°C / 72°F
Humidity
89%
Altimeter
30.13" Hg
Pressure
1020.32 hPa
24 Hour Rain
0.94"
Previous

46 mins ago

KRCZ 201135Z AUTO 00000KT 10SM CLR 24/22 A3013 RMK AO2 T02370215
Observed
Aug-20 @ 11:35 UTC
Visibility
10 SM
Flight Rules
VFR
Cloud Levels
  • Clear skies
Temperature
24°C / 75°F
Dewpoint
22°C / 72°F
Humidity
89%
Altimeter
30.13" Hg
Pressure
1020.32 hPa
Previous

1 hour ago

KRCZ 201115Z AUTO 00000KT 10SM CLR 23/21 A3013 RMK AO2 T02330211
Observed
Aug-20 @ 11:15 UTC
Visibility
10 SM
Flight Rules
VFR
Cloud Levels
  • Clear skies
Temperature
23°C / 73°F
Dewpoint
21°C / 70°F
Humidity
89%
Altimeter
30.13" Hg
Pressure
1020.32 hPa